createdAt,value
2023-04-05T00:01:20.154Z,5.63
2023-04-05T00:06:26.745Z,6.33
2023-04-05T00:11:33.037Z,4.33
2023-04-05T00:16:36.523Z,4.33
2023-04-05T00:21:40.650Z,5.43
2023-04-05T00:26:46.513Z,7.53
2023-04-05T00:31:49.540Z,5.57
2023-04-05T00:36:53.067Z,5.60
2023-04-05T00:41:56.286Z,7.73
2023-04-05T00:46:59.287Z,6.43
2023-04-05T00:52:02.668Z,4.70
2023-04-05T00:57:07.154Z,7.63
2023-04-05T01:02:39.421Z,4.43
2023-04-05T01:07:58.878Z,5.90
2023-04-05T01:13:02.354Z,6.57
2023-04-05T01:18:06.064Z,4.03
2023-04-05T01:23:54.768Z,4.03
2023-04-05T01:29:50.817Z,7.40
2023-04-05T01:35:08.336Z,4.97
2023-04-05T01:40:11.908Z,5.70
2023-04-05T01:45:14.911Z,4.67
2023-04-05T01:50:18.070Z,5.50
2023-04-05T01:55:20.969Z,4.53
2023-04-05T02:00:24.500Z,5.80
2023-04-05T02:05:27.293Z,3.93
2023-04-05T02:10:30.428Z,5.83
2023-04-05T02:15:34.140Z,6.20
2023-04-05T02:20:37.438Z,6.00
2023-04-05T02:25:40.387Z,4.97
2023-04-05T02:30:43.496Z,6.67
2023-04-05T02:35:50.475Z,5.27
2023-04-05T02:40:53.477Z,6.73
2023-04-05T02:45:56.483Z,4.03
2023-04-05T02:50:59.528Z,4.80
2023-04-05T02:56:02.608Z,5.80
2023-04-05T03:01:07.573Z,5.20
2023-04-05T03:06:10.776Z,5.20
2023-04-05T03:11:14.153Z,4.03
2023-04-05T03:16:17.477Z,4.80
2023-04-05T03:21:21.365Z,5.17
2023-04-05T03:26:24.619Z,5.30
2023-04-05T03:31:30.457Z,5.57
2023-04-05T03:36:42.051Z,5.03
2023-04-05T03:41:45.032Z,6.25
2023-04-05T03:46:48.124Z,4.63
2023-04-05T03:51:51.100Z,8.87
2023-04-05T03:56:54.207Z,6.37
2023-04-05T04:01:57.187Z,5.27
2023-04-05T04:07:00.198Z,4.40
2023-04-05T04:12:04.015Z,6.53
2023-04-05T04:17:07.595Z,5.63
2023-04-05T04:22:10.543Z,4.87
2023-04-05T04:27:13.567Z,4.97
2023-04-05T04:32:17.467Z,5.03
2023-04-05T04:37:22.667Z,6.83
2023-04-05T04:42:26.437Z,4.70
2023-04-05T04:47:30.722Z,5.70
2023-04-05T04:52:34.399Z,4.37
2023-04-05T04:57:37.454Z,8.23
2023-04-05T05:02:42.278Z,7.80
2023-04-05T05:07:45.337Z,5.93
2023-04-05T05:12:51.907Z,6.17
2023-04-05T05:17:58.404Z,4.73
2023-04-05T05:23:02.794Z,4.70
2023-04-05T05:28:05.777Z,6.33
2023-04-05T05:33:08.893Z,4.43
2023-04-05T05:38:13.780Z,5.43
2023-04-05T05:43:16.744Z,4.63
2023-04-05T05:48:20.939Z,8.43
2023-04-05T05:53:24.037Z,3.63
2023-04-05T05:58:26.956Z,4.80
2023-04-05T06:03:30.599Z,5.80
2023-04-05T06:08:33.550Z,5.23
2023-04-05T06:13:37.983Z,4.47
2023-04-05T06:18:42.219Z,3.27
2023-04-05T06:23:45.310Z,3.80
2023-04-05T06:28:48.496Z,6.60
2023-04-05T06:33:51.491Z,7.60
2023-04-05T06:38:54.489Z,9.93
2023-04-05T06:43:57.543Z,6.33
2023-04-05T06:49:03.159Z,5.70
2023-04-05T06:54:07.093Z,4.27
2023-04-05T06:59:10.155Z,6.20
2023-04-05T07:04:13.287Z,5.00
2023-04-05T07:09:16.342Z,7.60
2023-04-05T07:14:19.308Z,4.30
2023-04-05T07:19:22.516Z,5.50
2023-04-05T07:24:25.751Z,4.10
2023-04-05T07:29:28.673Z,4.50
2023-04-05T07:34:31.603Z,4.23
2023-04-05T07:39:37.596Z,4.23
2023-04-05T07:44:40.708Z,5.93
2023-04-05T07:49:43.856Z,5.50
2023-04-05T07:54:46.962Z,4.70
2023-04-05T07:59:53.137Z,4.57
2023-04-05T08:04:56.258Z,4.43
2023-04-05T08:10:00.382Z,4.20
2023-04-05T08:15:04.232Z,4.20
2023-04-05T08:20:08.718Z,4.60
2023-04-05T08:25:11.893Z,4.90
2023-04-05T08:30:16.540Z,5.63
2023-04-05T08:35:19.543Z,4.47
2023-04-05T08:40:26.638Z,4.23
2023-04-05T08:45:31.663Z,6.97
2023-04-05T08:50:34.449Z,5.13
2023-04-05T08:55:40.291Z,5.53
2023-04-05T09:00:44.024Z,5.50
2023-04-05T09:05:51.389Z,6.03
2023-04-05T09:10:54.456Z,5.17
2023-04-05T09:15:58.142Z,5.80
2023-04-05T09:21:05.990Z,4.82
2023-04-05T09:26:19.582Z,6.65
2023-04-05T09:31:37.017Z,3.88
2023-04-05T09:36:45.770Z,4.35
2023-04-05T09:42:13.225Z,5.30
2023-04-05T09:47:35.265Z,4.53
2023-04-05T09:52:38.368Z,4.65
2023-04-05T09:57:43.833Z,3.55
2023-04-05T10:02:47.640Z,6.00
2023-04-05T10:07:52.061Z,4.80
2023-04-05T10:12:55.734Z,5.15
2023-04-05T10:18:17.692Z,6.50
2023-04-05T10:23:35.070Z,4.93
2023-04-05T10:28:43.791Z,4.33
2023-04-05T10:33:51.725Z,5.30
2023-04-05T10:39:28.692Z,4.60
2023-04-05T10:44:34.156Z,4.63
2023-04-05T10:49:52.149Z,4.78
2023-04-05T10:54:57.388Z,4.60
2023-04-05T11:00:01.646Z,4.00
2023-04-05T11:05:27.830Z,3.67
2023-04-05T11:10:32.180Z,4.43
2023-04-05T11:15:36.634Z,3.72
2023-04-05T11:20:53.325Z,3.88
2023-04-05T11:26:06.725Z,4.63
2023-04-05T11:31:22.876Z,4.65
2023-04-05T11:36:47.926Z,5.43
2023-04-05T11:42:04.060Z,3.90
2023-04-05T11:47:08.169Z,3.70
2023-04-05T11:52:19.970Z,4.20
2023-04-05T11:57:24.043Z,3.75
2023-04-05T12:02:27.094Z,4.22
2023-04-05T12:07:32.768Z,4.28
2023-04-05T12:12:41.587Z,5.05
2023-04-05T12:17:50.901Z,6.93
2023-04-05T12:22:56.348Z,5.30
2023-04-05T12:28:08.435Z,3.88
2023-04-05T12:33:13.791Z,5.68
2023-04-05T12:38:17.661Z,4.50
2023-04-05T12:43:20.882Z,3.78
2023-04-05T12:48:26.069Z,5.47
2023-04-05T12:53:29.177Z,6.28
2023-04-05T12:58:40.131Z,6.55
2023-04-05T13:03:48.385Z,4.53
2023-04-05T13:08:52.833Z,5.47
2023-04-05T13:13:55.950Z,5.30
2023-04-05T13:18:58.923Z,3.88
2023-04-05T13:24:02.040Z,3.60
2023-04-05T13:29:05.372Z,5.05
2023-04-05T13:34:08.688Z,5.35
2023-04-05T13:39:11.656Z,4.55
2023-04-05T13:44:14.652Z,3.67
2023-04-05T13:49:17.613Z,5.25
2023-04-05T13:54:20.558Z,5.80
2023-04-05T13:59:23.622Z,4.63
2023-04-05T14:04:26.674Z,4.30
2023-04-05T14:09:30.493Z,5.35
2023-04-05T14:14:33.437Z,5.85
2023-04-05T14:19:36.534Z,5.80
2023-04-05T14:24:39.572Z,14.77
2023-04-05T14:29:45.672Z,5.03
2023-04-05T14:34:48.739Z,4.45
2023-04-05T14:39:51.684Z,5.50
2023-04-05T14:44:54.693Z,7.30
2023-04-05T14:49:57.926Z,5.95
2023-04-05T14:55:01.173Z,4.45
2023-04-05T15:00:04.823Z,5.32
2023-04-05T15:05:09.650Z,4.82
2023-04-05T15:10:12.696Z,4.60
2023-04-05T15:15:16.017Z,5.25
2023-04-05T15:20:19.270Z,7.63
2023-04-05T15:25:22.198Z,49.95
2023-04-05T15:30:25.579Z,9.93
2023-04-05T15:35:28.687Z,8.02
2023-04-05T15:40:31.844Z,5.57
2023-04-05T15:45:34.845Z,5.15
2023-04-05T15:50:37.838Z,6.30
2023-04-05T15:55:40.945Z,6.17
2023-04-05T16:00:44.251Z,4.23
2023-04-05T16:05:47.021Z,4.50
2023-04-05T16:10:50.408Z,4.23
2023-04-05T16:15:53.446Z,5.90
2023-04-05T16:20:57.478Z,5.27
2023-04-05T16:26:00.283Z,5.83
2023-04-05T16:31:03.992Z,3.97
2023-04-05T16:36:07.191Z,7.63
2023-04-05T16:41:10.447Z,5.63
2023-04-05T16:46:13.370Z,5.33
2023-04-05T16:51:16.366Z,6.87
2023-04-05T16:56:20.074Z,8.23
2023-04-05T17:01:23.102Z,7.87
2023-04-05T17:06:28.077Z,6.80
2023-04-05T17:11:31.264Z,8.73
2023-04-05T17:16:34.422Z,11.53
2023-04-05T17:21:37.421Z,11.03
2023-04-05T17:26:40.761Z,10.50
2023-04-05T17:31:44.624Z,13.10
2023-04-05T17:36:47.775Z,14.43
2023-04-05T17:41:51.005Z,12.60
2023-04-05T17:47:01.618Z,8.50
2023-04-05T17:52:09.058Z,7.07
2023-04-05T17:57:15.407Z,8.50
2023-04-05T18:02:18.781Z,8.37
2023-04-05T18:07:21.895Z,16.93
2023-04-05T18:12:24.903Z,26.83
2023-04-05T18:17:29.268Z,10.83
2023-04-05T18:22:35.066Z,7.17
2023-04-05T18:27:39.534Z,9.27
2023-04-05T18:32:47.540Z,9.80
2023-04-05T18:37:51.043Z,8.30
2023-04-05T18:42:54.067Z,8.83
2023-04-05T18:47:57.151Z,12.03
2023-04-05T18:53:00.605Z,9.13
2023-04-05T18:58:03.615Z,7.47
2023-04-05T19:03:06.551Z,6.87
2023-04-05T19:08:09.590Z,8.27
2023-04-05T19:13:12.615Z,8.57
2023-04-05T19:18:15.749Z,10.60
2023-04-05T19:23:18.799Z,9.03
2023-04-05T19:28:22.000Z,15.73
2023-04-05T19:33:24.981Z,9.13
2023-04-05T19:38:28.078Z,9.07
2023-04-05T19:43:31.824Z,7.80
2023-04-05T19:48:38.794Z,7.03
2023-04-05T19:53:53.679Z,5.43
2023-04-05T19:59:31.616Z,25.83
2023-04-05T20:04:39.002Z,24.43
2023-04-05T20:09:42.833Z,30.93
2023-04-05T20:14:46.465Z,30.37
2023-04-05T20:19:59.179Z,21.13
2023-04-05T20:25:34.717Z,18.20
2023-04-05T20:30:37.836Z,14.27
2023-04-05T20:35:42.482Z,11.93
2023-04-05T20:40:45.592Z,10.67
2023-04-05T20:45:48.826Z,10.33
2023-04-05T20:50:51.991Z,10.97
2023-04-05T20:55:59.069Z,11.20
2023-04-05T21:01:03.425Z,13.33
2023-04-05T21:06:08.803Z,19.50
2023-04-05T21:11:12.053Z,13.10
2023-04-05T21:16:15.307Z,15.37
2023-04-05T21:21:18.387Z,21.53
2023-04-05T21:26:21.468Z,19.30
2023-04-05T21:31:24.741Z,22.77
2023-04-05T21:36:27.989Z,22.87
2023-04-05T21:41:31.098Z,19.37
2023-04-05T21:46:34.202Z,19.57
2023-04-05T21:51:37.733Z,17.27
2023-04-05T21:56:40.686Z,9.70
2023-04-05T22:01:43.857Z,7.10
2023-04-05T22:06:48.353Z,8.93
2023-04-05T22:11:51.938Z,11.77
2023-04-05T22:16:55.804Z,14.13
2023-04-05T22:21:58.830Z,15.07
2023-04-05T22:27:02.768Z,21.13
2023-04-05T22:32:07.068Z,13.80
2023-04-05T22:37:11.193Z,14.30
2023-04-05T22:42:14.270Z,12.77
2023-04-05T22:47:17.263Z,11.40
2023-04-05T22:52:20.521Z,7.40
2023-04-05T22:57:23.497Z,13.30
2023-04-05T23:02:27.941Z,13.10
2023-04-05T23:07:31.270Z,15.63
2023-04-05T23:12:34.217Z,9.07
2023-04-05T23:17:37.567Z,13.53
2023-04-05T23:22:40.852Z,17.43
2023-04-05T23:27:43.682Z,8.53
2023-04-05T23:32:46.715Z,10.73
2023-04-05T23:37:49.891Z,13.73
2023-04-05T23:42:53.008Z,14.27
2023-04-05T23:47:56.082Z,9.13
2023-04-05T23:53:00.936Z,10.17
2023-04-05T23:58:04.067Z,10.60
